CheckWX is a tool to help pilots better visualize weather data.  It is not intended as a substitute for an official pre-flight weather briefing.

15:43:07 UTC

EFUT METAR
Utti Air Base Airport
Utti / Valkeala, Finland
Current

23 mins ago

EFUT 201520Z AUTO 32012G25KT 250V020 3300 -SN OVC019 M06/M09 Q0996
Observed
Feb-20 @ 15:20 UTC
Wind
  • 320° at 12 KTS
  • Gusting to 25 KTS
Visibility
3,299 meters
Flight Rules
IFR
Conditions
Light Snow
Cloud Levels
  • Overcast at 1,900' AGL
Temperature
-6°C / 21°F
Dewpoint
-9°C / 16°F
Humidity
80%
Altimeter
29.41" Hg
Pressure
995.92 hPa
Previous

53 mins ago

EFUT 201450Z AUTO 32013G25KT 270V010 4700 -SN OVC016 M05/M09 Q0995
Observed
Feb-20 @ 14:50 UTC
Wind
  • 320° at 13 KTS
  • Gusting to 25 KTS
Visibility
4,699 meters
Flight Rules
IFR
Conditions
Light Snow
Cloud Levels
  • Overcast at 1,600' AGL
Temperature
-5°C / 23°F
Dewpoint
-9°C / 16°F
Humidity
74%
Altimeter
29.38" Hg
Pressure
994.92 hPa
Previous

1 hour ago

EFUT 201420Z AUTO 32011G21KT 280V010 1200 R25/P2000D -SN BKN014 M05/M08 Q0995
Observed
Feb-20 @ 14:20 UTC
Wind
  • 320° at 11 KTS
  • Gusting to 21 KTS
Visibility
1,207 meters
Flight Rules
LIFR
Conditions
Light Snow
Cloud Levels
  • Broken at 1,400' AGL
Temperature
-5°C / 23°F
Dewpoint
-8°C / 18°F
Humidity
80%
Altimeter
29.38" Hg
Pressure
994.92 hPa